OIBK

Kish International

Airport
ICAO code
OIBK
IATA Code
KIH
Summary
ICAO Region
MID
ICAO Territory
Location

Kish Island, Kish Island

Serving
Kish Island
Elevation
101 ft
Coordinates
26° 31' 39" N , 53° 58' 59" E
KCC
Metar
Observation
OIBK 280730Z 15008KT CAVOK 29/20 Q1012
Station
Kish Island / Kish
Date/Time
2022-11-28 07:30:00
Wind direction
150°
Wind speed
08 kts
Lowest cloud amount
clouds and visibility OK
Temperature
29°C
Dew point
20°C
Humidity
58%
QNH
1012 hPa
Weather condition
n/a

Kish International Airport is an airport on Kish Island, Iran.

Climatology

Warm Desert climate (Köppen climate classification BWh).

Runways

Designator Length Width Surface Rops
09L/27R 3659 66 ASP No/No
09R/27L 3659 45 ASP No/No

Airport map

Aerial View

SKYbrary Partners:

Safety knowledge contributed by: